sensor_id;sensor_type;location;lat;lon;timestamp;P1;durP1;ratioP1;P2;durP2;ratioP2
75012;SDS011;63567;49.956;20.130;2023-09-18T00:00:41;5.30;;;4.80;;
75012;SDS011;63567;49.956;20.130;2023-09-18T00:03:07;5.70;;;5.20;;
75012;SDS011;63567;49.956;20.130;2023-09-18T00:05:33;7.07;;;6.38;;
75012;SDS011;63567;49.956;20.130;2023-09-18T00:07:59;7.63;;;7.05;;
75012;SDS011;63567;49.956;20.130;2023-09-18T00:10:25;6.20;;;5.60;;
75012;SDS011;63567;49.956;20.130;2023-09-18T00:12:53;6.07;;;5.53;;
75012;SDS011;63567;49.956;20.130;2023-09-18T00:15:19;4.88;;;4.30;;
75012;SDS011;63567;49.956;20.130;2023-09-18T00:17:44;5.88;;;5.35;;
75012;SDS011;63567;49.956;20.130;2023-09-18T00:20:10;5.03;;;4.53;;
75012;SDS011;63567;49.956;20.130;2023-09-18T00:22:35;5.47;;;5.00;;
75012;SDS011;63567;49.956;20.130;2023-09-18T00:25:00;6.33;;;5.77;;
75012;SDS011;63567;49.956;20.130;2023-09-18T00:27:29;6.47;;;5.88;;
75012;SDS011;63567;49.956;20.130;2023-09-18T00:29:54;7.15;;;6.55;;
75012;SDS011;63567;49.956;20.130;2023-09-18T00:32:20;7.00;;;6.40;;
75012;SDS011;63567;49.956;20.130;2023-09-18T00:34:45;6.40;;;5.80;;
75012;SDS011;63567;49.956;20.130;2023-09-18T00:37:10;7.00;;;6.40;;
75012;SDS011;63567;49.956;20.130;2023-09-18T00:39:37;7.43;;;6.70;;
75012;SDS011;63567;49.956;20.130;2023-09-18T00:42:02;7.88;;;7.28;;
75012;SDS011;63567;49.956;20.130;2023-09-18T00:44:28;5.25;;;4.75;;
75012;SDS011;63567;49.956;20.130;2023-09-18T00:46:53;7.43;;;6.93;;
75012;SDS011;63567;49.956;20.130;2023-09-18T00:49:20;7.03;;;6.43;;
75012;SDS011;63567;49.956;20.130;2023-09-18T00:51:47;7.43;;;6.82;;
75012;SDS011;63567;49.956;20.130;2023-09-18T00:54:12;7.20;;;6.60;;
75012;SDS011;63567;49.956;20.130;2023-09-18T00:56:43;7.28;;;6.68;;
75012;SDS011;63567;49.956;20.130;2023-09-18T00:59:09;7.07;;;6.38;;
75012;SDS011;63567;49.956;20.130;2023-09-18T01:01:35;7.35;;;6.75;;
75012;SDS011;63567;49.956;20.130;2023-09-18T01:04:00;6.83;;;6.23;;
75012;SDS011;63567;49.956;20.130;2023-09-18T01:06:26;7.68;;;7.07;;
75012;SDS011;63567;49.956;20.130;2023-09-18T01:08:55;10.80;;;10.00;;
75012;SDS011;63567;49.956;20.130;2023-09-18T01:13:58;6.97;;;6.38;;
75012;SDS011;63567;49.956;20.130;2023-09-18T01:16:57;7.63;;;7.03;;
75012;SDS011;63567;49.956;20.130;2023-09-18T01:19:45;7.15;;;6.55;;
75012;SDS011;63567;49.956;20.130;2023-09-18T01:22:12;8.13;;;7.47;;
75012;SDS011;63567;49.956;20.130;2023-09-18T01:24:39;7.28;;;6.57;;
75012;SDS011;63567;49.956;20.130;2023-09-18T01:27:08;7.78;;;7.07;;
75012;SDS011;63567;49.956;20.130;2023-09-18T01:29:34;9.43;;;8.63;;
75012;SDS011;63567;49.956;20.130;2023-09-18T01:32:00;7.82;;;7.13;;
75012;SDS011;63567;49.956;20.130;2023-09-18T01:34:26;7.53;;;5.80;;
75012;SDS011;63567;49.956;20.130;2023-09-18T01:36:58;8.50;;;7.70;;
75012;SDS011;63567;49.956;20.130;2023-09-18T01:39:24;8.73;;;7.93;;
75012;SDS011;63567;49.956;20.130;2023-09-18T01:41:55;6.32;;;5.72;;
75012;SDS011;63567;49.956;20.130;2023-09-18T01:44:21;8.53;;;7.73;;
75012;SDS011;63567;49.956;20.130;2023-09-18T01:46:46;7.03;;;6.23;;
75012;SDS011;63567;49.956;20.130;2023-09-18T01:49:11;8.80;;;8.00;;
75012;SDS011;63567;49.956;20.130;2023-09-18T01:51:37;8.47;;;7.77;;
75012;SDS011;63567;49.956;20.130;2023-09-18T01:54:02;8.70;;;7.93;;
75012;SDS011;63567;49.956;20.130;2023-09-18T01:56:28;7.00;;;6.30;;
75012;SDS011;63567;49.956;20.130;2023-09-18T01:58:53;8.30;;;7.60;;
75012;SDS011;63567;49.956;20.130;2023-09-18T02:01:19;7.80;;;7.00;;
75012;SDS011;63567;49.956;20.130;2023-09-18T02:03:44;8.60;;;7.90;;
75012;SDS011;63567;49.956;20.130;2023-09-18T02:06:10;7.82;;;7.10;;
75012;SDS011;63567;49.956;20.130;2023-09-18T02:08:36;8.80;;;8.10;;
75012;SDS011;63567;49.956;20.130;2023-09-18T02:11:01;6.60;;;5.97;;
75012;SDS011;63567;49.956;20.130;2023-09-18T02:13:27;8.23;;;7.53;;
75012;SDS011;63567;49.956;20.130;2023-09-18T02:15:53;7.53;;;6.87;;
75012;SDS011;63567;49.956;20.130;2023-09-18T02:18:18;9.77;;;8.98;;
75012;SDS011;63567;49.956;20.130;2023-09-18T02:20:44;7.83;;;7.03;;
75012;SDS011;63567;49.956;20.130;2023-09-18T02:23:12;8.43;;;7.72;;
75012;SDS011;63567;49.956;20.130;2023-09-18T02:25:38;8.20;;;7.53;;
75012;SDS011;63567;49.956;20.130;2023-09-18T02:28:05;8.00;;;7.40;;
75012;SDS011;63567;49.956;20.130;2023-09-18T02:30:30;6.13;;;5.43;;
75012;SDS011;63567;49.956;20.130;2023-09-18T02:32:55;8.03;;;7.33;;
75012;SDS011;63567;49.956;20.130;2023-09-18T02:35:21;6.30;;;5.60;;
75012;SDS011;63567;49.956;20.130;2023-09-18T02:37:46;8.20;;;7.20;;
75012;SDS011;63567;49.956;20.130;2023-09-18T02:40:11;8.03;;;7.33;;
75012;SDS011;63567;49.956;20.130;2023-09-18T02:42:37;8.75;;;7.95;;
75012;SDS011;63567;49.956;20.130;2023-09-18T02:45:03;8.30;;;7.60;;
75012;SDS011;63567;49.956;20.130;2023-09-18T02:47:28;8.05;;;7.28;;
75012;SDS011;63567;49.956;20.130;2023-09-18T02:49:54;9.20;;;8.40;;
75012;SDS011;63567;49.956;20.130;2023-09-18T02:52:19;9.30;;;8.50;;
75012;SDS011;63567;49.956;20.130;2023-09-18T02:54:44;9.10;;;8.20;;
75012;SDS011;63567;49.956;20.130;2023-09-18T02:57:09;10.00;;;9.17;;
75012;SDS011;63567;49.956;20.130;2023-09-18T02:59:34;9.43;;;8.67;;
75012;SDS011;63567;49.956;20.130;2023-09-18T03:02:00;8.57;;;7.77;;
75012;SDS011;63567;49.956;20.130;2023-09-18T03:04:25;8.60;;;7.80;;
75012;SDS011;63567;49.956;20.130;2023-09-18T03:06:50;9.23;;;8.33;;
75012;SDS011;63567;49.956;20.130;2023-09-18T03:09:16;10.57;;;9.67;;
75012;SDS011;63567;49.956;20.130;2023-09-18T03:11:41;11.55;;;10.73;;
75012;SDS011;63567;49.956;20.130;2023-09-18T03:14:08;10.10;;;9.20;;
75012;SDS011;63567;49.956;20.130;2023-09-18T03:16:34;10.03;;;9.13;;
75012;SDS011;63567;49.956;20.130;2023-09-18T03:18:59;9.97;;;9.17;;
75012;SDS011;63567;49.956;20.130;2023-09-18T03:21:24;9.27;;;8.47;;
75012;SDS011;63567;49.956;20.130;2023-09-18T03:23:49;9.47;;;8.63;;
75012;SDS011;63567;49.956;20.130;2023-09-18T03:26:15;9.93;;;9.05;;
75012;SDS011;63567;49.956;20.130;2023-09-18T03:28:40;7.78;;;7.05;;
75012;SDS011;63567;49.956;20.130;2023-09-18T03:31:05;10.20;;;9.37;;
75012;SDS011;63567;49.956;20.130;2023-09-18T03:33:31;9.57;;;8.68;;
75012;SDS011;63567;49.956;20.130;2023-09-18T03:35:57;9.80;;;8.90;;
75012;SDS011;63567;49.956;20.130;2023-09-18T03:38:23;10.45;;;9.68;;
75012;SDS011;63567;49.956;20.130;2023-09-18T03:40:49;9.82;;;8.95;;
75012;SDS011;63567;49.956;20.130;2023-09-18T03:43:14;9.53;;;8.63;;
75012;SDS011;63567;49.956;20.130;2023-09-18T03:45:40;9.63;;;8.73;;
75012;SDS011;63567;49.956;20.130;2023-09-18T03:48:05;10.82;;;9.82;;
75012;SDS011;63567;49.956;20.130;2023-09-18T03:50:31;10.95;;;10.05;;
75012;SDS011;63567;49.956;20.130;2023-09-18T03:52:56;9.60;;;8.80;;
75012;SDS011;63567;49.956;20.130;2023-09-18T03:55:21;10.23;;;9.27;;
75012;SDS011;63567;49.956;20.130;2023-09-18T03:57:47;10.20;;;9.30;;
75012;SDS011;63567;49.956;20.130;2023-09-18T04:00:13;10.30;;;9.38;;
75012;SDS011;63567;49.956;20.130;2023-09-18T04:02:39;10.15;;;9.15;;
75012;SDS011;63567;49.956;20.130;2023-09-18T04:05:04;10.63;;;9.63;;
75012;SDS011;63567;49.956;20.130;2023-09-18T04:07:30;11.10;;;10.10;;
75012;SDS011;63567;49.956;20.130;2023-09-18T04:09:56;10.75;;;9.75;;
75012;SDS011;63567;49.956;20.130;2023-09-18T04:12:21;9.85;;;8.95;;
75012;SDS011;63567;49.956;20.130;2023-09-18T04:14:47;8.93;;;8.10;;
75012;SDS011;63567;49.956;20.130;2023-09-18T04:17:12;10.57;;;9.57;;
75012;SDS011;63567;49.956;20.130;2023-09-18T04:19:37;10.77;;;9.77;;
75012;SDS011;63567;49.956;20.130;2023-09-18T04:22:03;9.13;;;8.23;;
75012;SDS011;63567;49.956;20.130;2023-09-18T04:24:28;10.32;;;9.43;;
75012;SDS011;63567;49.956;20.130;2023-09-18T04:26:54;11.23;;;10.23;;
75012;SDS011;63567;49.956;20.130;2023-09-18T04:29:19;11.87;;;10.87;;
75012;SDS011;63567;49.956;20.130;2023-09-18T04:31:45;11.55;;;10.35;;
75012;SDS011;63567;49.956;20.130;2023-09-18T04:34:10;12.30;;;11.23;;
75012;SDS011;63567;49.956;20.130;2023-09-18T04:36:36;11.55;;;10.55;;
75012;SDS011;63567;49.956;20.130;2023-09-18T04:39:02;11.60;;;10.50;;
75012;SDS011;63567;49.956;20.130;2023-09-18T04:41:29;10.80;;;9.90;;
75012;SDS011;63567;49.956;20.130;2023-09-18T04:43:55;12.07;;;11.07;;
75012;SDS011;63567;49.956;20.130;2023-09-18T04:46:20;9.23;;;8.13;;
75012;SDS011;63567;49.956;20.130;2023-09-18T04:48:45;10.80;;;9.80;;
75012;SDS011;63567;49.956;20.130;2023-09-18T04:51:10;11.13;;;10.13;;
75012;SDS011;63567;49.956;20.130;2023-09-18T04:53:37;10.95;;;9.93;;
75012;SDS011;63567;49.956;20.130;2023-09-18T04:56:02;9.83;;;8.97;;
75012;SDS011;63567;49.956;20.130;2023-09-18T04:58:28;10.13;;;9.07;;
75012;SDS011;63567;49.956;20.130;2023-09-18T05:00:54;11.32;;;10.25;;
75012;SDS011;63567;49.956;20.130;2023-09-18T05:03:20;9.95;;;9.05;;
75012;SDS011;63567;49.956;20.130;2023-09-18T05:05:46;9.18;;;8.27;;
75012;SDS011;63567;49.956;20.130;2023-09-18T05:08:11;11.00;;;10.00;;
75012;SDS011;63567;49.956;20.130;2023-09-18T05:10:36;10.97;;;9.97;;
75012;SDS011;63567;49.956;20.130;2023-09-18T05:13:02;11.02;;;10.13;;
75012;SDS011;63567;49.956;20.130;2023-09-18T05:15:28;8.77;;;7.95;;
75012;SDS011;63567;49.956;20.130;2023-09-18T05:17:58;8.57;;;7.68;;
75012;SDS011;63567;49.956;20.130;2023-09-18T05:20:25;11.35;;;10.35;;
75012;SDS011;63567;49.956;20.130;2023-09-18T05:22:51;9.70;;;8.70;;
75012;SDS011;63567;49.956;20.130;2023-09-18T05:25:18;11.00;;;10.00;;
75012;SDS011;63567;49.956;20.130;2023-09-18T05:27:44;11.25;;;10.25;;
75012;SDS011;63567;49.956;20.130;2023-09-18T05:30:13;10.75;;;9.65;;
75012;SDS011;63567;49.956;20.130;2023-09-18T05:32:40;10.63;;;9.63;;
75012;SDS011;63567;49.956;20.130;2023-09-18T05:35:07;11.10;;;10.02;;
75012;SDS011;63567;49.956;20.130;2023-09-18T05:37:35;9.63;;;8.82;;
75012;SDS011;63567;49.956;20.130;2023-09-18T05:40:04;10.05;;;9.13;;
75012;SDS011;63567;49.956;20.130;2023-09-18T05:42:34;10.63;;;9.73;;
75012;SDS011;63567;49.956;20.130;2023-09-18T05:44:59;10.07;;;9.07;;
75012;SDS011;63567;49.956;20.130;2023-09-18T05:47:24;10.30;;;9.30;;
75012;SDS011;63567;49.956;20.130;2023-09-18T05:49:50;9.87;;;8.97;;
75012;SDS011;63567;49.956;20.130;2023-09-18T05:52:15;9.27;;;8.47;;
75012;SDS011;63567;49.956;20.130;2023-09-18T05:54:40;9.47;;;8.67;;
75012;SDS011;63567;49.956;20.130;2023-09-18T05:57:05;8.77;;;7.97;;
75012;SDS011;63567;49.956;20.130;2023-09-18T05:59:32;8.70;;;7.97;;
75012;SDS011;63567;49.956;20.130;2023-09-18T06:01:57;8.85;;;8.05;;
75012;SDS011;63567;49.956;20.130;2023-09-18T06:04:22;9.80;;;8.90;;
75012;SDS011;63567;49.956;20.130;2023-09-18T06:06:48;8.90;;;8.10;;
75012;SDS011;63567;49.956;20.130;2023-09-18T06:09:14;9.83;;;9.00;;
75012;SDS011;63567;49.956;20.130;2023-09-18T06:11:39;7.20;;;6.50;;
75012;SDS011;63567;49.956;20.130;2023-09-18T06:14:04;9.50;;;8.73;;
75012;SDS011;63567;49.956;20.130;2023-09-18T06:16:30;9.10;;;8.30;;
75012;SDS011;63567;49.956;20.130;2023-09-18T06:18:55;9.68;;;8.88;;
75012;SDS011;63567;49.956;20.130;2023-09-18T06:21:21;9.13;;;8.33;;
75012;SDS011;63567;49.956;20.130;2023-09-18T06:23:46;9.87;;;8.93;;
75012;SDS011;63567;49.956;20.130;2023-09-18T06:26:11;9.40;;;8.60;;
75012;SDS011;63567;49.956;20.130;2023-09-18T06:28:36;9.48;;;8.68;;
75012;SDS011;63567;49.956;20.130;2023-09-18T06:31:02;7.68;;;6.88;;
75012;SDS011;63567;49.956;20.130;2023-09-18T06:33:27;9.82;;;8.93;;
75012;SDS011;63567;49.956;20.130;2023-09-18T06:35:53;9.27;;;8.50;;
75012;SDS011;63567;49.956;20.130;2023-09-18T06:38:19;8.25;;;7.45;;
75012;SDS011;63567;49.956;20.130;2023-09-18T06:40:45;9.65;;;8.85;;
75012;SDS011;63567;49.956;20.130;2023-09-18T06:43:10;9.57;;;8.73;;
75012;SDS011;63567;49.956;20.130;2023-09-18T06:45:35;9.47;;;8.67;;
75012;SDS011;63567;49.956;20.130;2023-09-18T06:48:03;9.43;;;8.63;;
75012;SDS011;63567;49.956;20.130;2023-09-18T06:50:28;9.88;;;8.90;;
75012;SDS011;63567;49.956;20.130;2023-09-18T06:52:54;9.37;;;8.47;;
75012;SDS011;63567;49.956;20.130;2023-09-18T06:55:19;11.53;;;10.63;;
75012;SDS011;63567;49.956;20.130;2023-09-18T06:57:44;10.83;;;9.80;;
75012;SDS011;63567;49.956;20.130;2023-09-18T07:00:10;10.05;;;9.13;;
75012;SDS011;63567;49.956;20.130;2023-09-18T07:02:35;10.80;;;9.80;;
75012;SDS011;63567;49.956;20.130;2023-09-18T07:05:01;10.50;;;9.60;;
75012;SDS011;63567;49.956;20.130;2023-09-18T07:07:26;10.47;;;9.47;;
75012;SDS011;63567;49.956;20.130;2023-09-18T07:09:52;11.45;;;10.45;;
75012;SDS011;63567;49.956;20.130;2023-09-18T07:12:17;11.50;;;10.50;;
75012;SDS011;63567;49.956;20.130;2023-09-18T07:14:48;11.13;;;10.23;;
75012;SDS011;63567;49.956;20.130;2023-09-18T07:17:13;11.88;;;10.98;;
75012;SDS011;63567;49.956;20.130;2023-09-18T07:19:39;11.50;;;10.60;;
75012;SDS011;63567;49.956;20.130;2023-09-18T07:22:04;10.90;;;10.00;;
75012;SDS011;63567;49.956;20.130;2023-09-18T07:24:29;10.40;;;9.50;;
75012;SDS011;63567;49.956;20.130;2023-09-18T07:26:54;11.10;;;10.10;;
75012;SDS011;63567;49.956;20.130;2023-09-18T07:29:20;11.57;;;10.57;;
75012;SDS011;63567;49.956;20.130;2023-09-18T07:31:46;11.20;;;10.25;;
75012;SDS011;63567;49.956;20.130;2023-09-18T07:34:12;12.60;;;11.50;;
75012;SDS011;63567;49.956;20.130;2023-09-18T07:36:39;9.20;;;8.30;;
75012;SDS011;63567;49.956;20.130;2023-09-18T07:39:04;12.75;;;11.75;;
75012;SDS011;63567;49.956;20.130;2023-09-18T07:41:31;11.30;;;10.30;;
75012;SDS011;63567;49.956;20.130;2023-09-18T07:43:56;12.25;;;11.25;;
75012;SDS011;63567;49.956;20.130;2023-09-18T07:46:23;12.27;;;11.20;;
75012;SDS011;63567;49.956;20.130;2023-09-18T07:48:48;13.27;;;12.27;;
75012;SDS011;63567;49.956;20.130;2023-09-18T07:51:14;12.37;;;11.27;;
75012;SDS011;63567;49.956;20.130;2023-09-18T07:53:41;11.32;;;10.32;;
75012;SDS011;63567;49.956;20.130;2023-09-18T07:56:06;12.63;;;11.63;;
75012;SDS011;63567;49.956;20.130;2023-09-18T07:58:32;10.93;;;9.93;;
75012;SDS011;63567;49.956;20.130;2023-09-18T08:00:58;10.68;;;9.32;;
75012;SDS011;63567;49.956;20.130;2023-09-18T08:03:24;13.27;;;12.25;;
75012;SDS011;63567;49.956;20.130;2023-09-18T08:05:50;12.55;;;11.38;;
75012;SDS011;63567;49.956;20.130;2023-09-18T08:08:17;13.73;;;12.63;;
75012;SDS011;63567;49.956;20.130;2023-09-18T08:10:42;12.43;;;11.43;;
75012;SDS011;63567;49.956;20.130;2023-09-18T08:13:08;12.73;;;11.73;;
75012;SDS011;63567;49.956;20.130;2023-09-18T08:15:33;14.05;;;12.90;;
75012;SDS011;63567;49.956;20.130;2023-09-18T08:17:59;9.50;;;8.70;;
75012;SDS011;63567;49.956;20.130;2023-09-18T08:20:25;12.43;;;11.43;;
75012;SDS011;63567;49.956;20.130;2023-09-18T08:22:51;12.20;;;11.20;;
75012;SDS011;63567;49.956;20.130;2023-09-18T08:25:16;12.27;;;11.27;;
75012;SDS011;63567;49.956;20.130;2023-09-18T08:27:42;12.27;;;11.32;;
75012;SDS011;63567;49.956;20.130;2023-09-18T08:30:09;12.25;;;11.25;;
75012;SDS011;63567;49.956;20.130;2023-09-18T08:32:37;12.82;;;11.82;;
75012;SDS011;63567;49.956;20.130;2023-09-18T08:35:03;9.88;;;8.95;;
75012;SDS011;63567;49.956;20.130;2023-09-18T08:37:30;12.98;;;12.07;;
75012;SDS011;63567;49.956;20.130;2023-09-18T08:39:55;14.83;;;13.83;;
75012;SDS011;63567;49.956;20.130;2023-09-18T08:42:20;13.07;;;11.97;;
75012;SDS011;63567;49.956;20.130;2023-09-18T08:44:48;12.63;;;11.63;;
75012;SDS011;63567;49.956;20.130;2023-09-18T08:47:16;13.23;;;12.23;;
75012;SDS011;63567;49.956;20.130;2023-09-18T08:49:42;10.27;;;9.38;;
75012;SDS011;63567;49.956;20.130;2023-09-18T08:52:08;12.75;;;11.85;;
75012;SDS011;63567;49.956;20.130;2023-09-18T08:54:35;13.20;;;12.30;;
75012;SDS011;63567;49.956;20.130;2023-09-18T08:57:00;13.73;;;12.73;;
75012;SDS011;63567;49.956;20.130;2023-09-18T08:59:25;14.57;;;13.48;;
75012;SDS011;63567;49.956;20.130;2023-09-18T09:01:52;15.93;;;14.93;;
75012;SDS011;63567;49.956;20.130;2023-09-18T09:04:17;16.42;;;15.32;;
75012;SDS011;63567;49.956;20.130;2023-09-18T09:06:43;15.05;;;14.05;;
75012;SDS011;63567;49.956;20.130;2023-09-18T09:09:08;11.10;;;10.15;;
75012;SDS011;63567;49.956;20.130;2023-09-18T09:11:34;14.27;;;13.27;;
75012;SDS011;63567;49.956;20.130;2023-09-18T09:14:08;18.48;;;17.38;;
75012;SDS011;63567;49.956;20.130;2023-09-18T09:16:40;16.05;;;14.90;;
75012;SDS011;63567;49.956;20.130;2023-09-18T09:19:11;16.23;;;15.13;;
75012;SDS011;63567;49.956;20.130;2023-09-18T09:21:40;18.95;;;17.65;;
75012;SDS011;63567;49.956;20.130;2023-09-18T09:24:08;19.55;;;18.35;;
75012;SDS011;63567;49.956;20.130;2023-09-18T09:26:33;17.25;;;16.15;;
75012;SDS011;63567;49.956;20.130;2023-09-18T09:29:13;21.17;;;19.75;;
75012;SDS011;63567;49.956;20.130;2023-09-18T09:31:40;12.10;;;11.10;;
75012;SDS011;63567;49.956;20.130;2023-09-18T09:34:05;18.83;;;17.73;;
75012;SDS011;63567;49.956;20.130;2023-09-18T09:36:31;20.03;;;18.83;;
75012;SDS011;63567;49.956;20.130;2023-09-18T09:38:58;23.13;;;21.73;;
75012;SDS011;63567;49.956;20.130;2023-09-18T09:41:23;20.60;;;19.30;;
75012;SDS011;63567;49.956;20.130;2023-09-18T09:43:51;20.38;;;19.17;;
75012;SDS011;63567;49.956;20.130;2023-09-18T09:46:17;23.13;;;21.73;;
75012;SDS011;63567;49.956;20.130;2023-09-18T09:49:02;25.50;;;24.08;;
75012;SDS011;63567;49.956;20.130;2023-09-18T09:51:31;18.27;;;17.08;;
75012;SDS011;63567;49.956;20.130;2023-09-18T09:53:58;27.13;;;25.55;;
75012;SDS011;63567;49.956;20.130;2023-09-18T09:56:44;24.60;;;23.13;;
75012;SDS011;63567;49.956;20.130;2023-09-18T09:59:15;16.45;;;15.25;;
75012;SDS011;63567;49.956;20.130;2023-09-18T10:01:42;25.65;;;24.20;;
75012;SDS011;63567;49.956;20.130;2023-09-18T10:04:14;28.80;;;27.20;;
75012;SDS011;63567;49.956;20.130;2023-09-18T10:06:48;23.65;;;22.25;;
75012;SDS011;63567;49.956;20.130;2023-09-18T10:09:17;26.48;;;25.08;;
75012;SDS011;63567;49.956;20.130;2023-09-18T10:11:45;25.15;;;23.85;;
75012;SDS011;63567;49.956;20.130;2023-09-18T10:14:16;28.10;;;26.70;;
75012;SDS011;63567;49.956;20.130;2023-09-18T10:16:45;25.65;;;24.25;;
75012;SDS011;63567;49.956;20.130;2023-09-18T10:19:21;27.45;;;26.05;;
75012;SDS011;63567;49.956;20.130;2023-09-18T10:24:33;25.85;;;24.63;;
75012;SDS011;63567;49.956;20.130;2023-09-18T10:27:02;26.92;;;25.60;;
75012;SDS011;63567;49.956;20.130;2023-09-18T10:29:28;28.55;;;27.23;;
75012;SDS011;63567;49.956;20.130;2023-09-18T10:31:55;28.48;;;27.17;;
75012;SDS011;63567;49.956;20.130;2023-09-18T10:34:21;32.78;;;31.27;;
75012;SDS011;63567;49.956;20.130;2023-09-18T10:36:51;28.60;;;27.20;;
75012;SDS011;63567;49.956;20.130;2023-09-18T10:39:18;28.50;;;27.20;;
75012;SDS011;63567;49.956;20.130;2023-09-18T10:41:47;36.35;;;34.88;;
75012;SDS011;63567;49.956;20.130;2023-09-18T10:44:13;36.65;;;35.15;;
75012;SDS011;63567;49.956;20.130;2023-09-18T10:46:40;35.42;;;33.92;;
75012;SDS011;63567;49.956;20.130;2023-09-18T10:49:06;39.42;;;37.78;;
75012;SDS011;63567;49.956;20.130;2023-09-18T10:51:31;33.65;;;32.13;;
75012;SDS011;63567;49.956;20.130;2023-09-18T10:53:58;34.13;;;32.72;;
75012;SDS011;63567;49.956;20.130;2023-09-18T10:56:25;37.17;;;35.63;;
75012;SDS011;63567;49.956;20.130;2023-09-18T10:58:58;42.05;;;40.35;;
75012;SDS011;63567;49.956;20.130;2023-09-18T11:01:24;35.72;;;34.22;;
75012;SDS011;63567;49.956;20.130;2023-09-18T11:03:52;59.70;;;57.70;;
75012;SDS011;63567;49.956;20.130;2023-09-18T11:06:18;39.58;;;38.03;;
75012;SDS011;63567;49.956;20.130;2023-09-18T11:08:46;36.92;;;35.33;;
75012;SDS011;63567;49.956;20.130;2023-09-18T11:11:16;19.35;;;18.25;;
75012;SDS011;63567;49.956;20.130;2023-09-18T11:13:45;37.50;;;35.95;;
75012;SDS011;63567;49.956;20.130;2023-09-18T11:16:16;39.03;;;37.45;;
75012;SDS011;63567;49.956;20.130;2023-09-18T11:18:51;37.78;;;36.28;;
75012;SDS011;63567;49.956;20.130;2023-09-18T11:21:17;43.83;;;42.28;;
75012;SDS011;63567;49.956;20.130;2023-09-18T11:23:43;46.67;;;44.97;;
75012;SDS011;63567;49.956;20.130;2023-09-18T11:26:09;44.75;;;43.03;;
75012;SDS011;63567;49.956;20.130;2023-09-18T11:28:36;46.92;;;45.17;;
75012;SDS011;63567;49.956;20.130;2023-09-18T11:31:05;52.90;;;51.03;;
75012;SDS011;63567;49.956;20.130;2023-09-18T11:36:12;47.45;;;45.75;;
75012;SDS011;63567;49.956;20.130;2023-09-18T11:38:58;54.40;;;52.55;;
75012;SDS011;63567;49.956;20.130;2023-09-18T11:41:29;52.60;;;50.78;;
75012;SDS011;63567;49.956;20.130;2023-09-18T11:46:44;57.75;;;55.75;;
75012;SDS011;63567;49.956;20.130;2023-09-18T11:49:11;58.40;;;56.45;;
75012;SDS011;63567;49.956;20.130;2023-09-18T11:51:37;59.95;;;57.90;;
75012;SDS011;63567;49.956;20.130;2023-09-18T11:54:03;58.08;;;56.10;;
75012;SDS011;63567;49.956;20.130;2023-09-18T11:56:34;26.15;;;24.95;;
75012;SDS011;63567;49.956;20.130;2023-09-18T11:59:00;32.92;;;31.60;;
75012;SDS011;63567;49.956;20.130;2023-09-18T12:01:29;57.85;;;55.92;;
75012;SDS011;63567;49.956;20.130;2023-09-18T12:04:02;52.13;;;50.28;;
75012;SDS011;63567;49.956;20.130;2023-09-18T12:06:34;47.35;;;45.67;;
75012;SDS011;63567;49.956;20.130;2023-09-18T12:09:01;51.03;;;49.25;;
75012;SDS011;63567;49.956;20.130;2023-09-18T12:11:28;24.48;;;23.38;;
75012;SDS011;63567;49.956;20.130;2023-09-18T12:13:54;55.40;;;53.53;;
75012;SDS011;63567;49.956;20.130;2023-09-18T12:16:19;68.07;;;65.80;;
75012;SDS011;63567;49.956;20.130;2023-09-18T12:18:45;51.83;;;50.03;;
75012;SDS011;63567;49.956;20.130;2023-09-18T12:23:40;50.70;;;48.85;;
75012;SDS011;63567;49.956;20.130;2023-09-18T12:26:07;56.45;;;54.55;;
75012;SDS011;63567;49.956;20.130;2023-09-18T12:28:36;51.75;;;49.85;;
75012;SDS011;63567;49.956;20.130;2023-09-18T12:31:02;63.37;;;61.40;;
75012;SDS011;63567;49.956;20.130;2023-09-18T12:33:34;65.60;;;63.50;;
75012;SDS011;63567;49.956;20.130;2023-09-18T12:36:01;51.67;;;49.78;;
75012;SDS011;63567;49.956;20.130;2023-09-18T12:38:28;48.45;;;46.67;;
75012;SDS011;63567;49.956;20.130;2023-09-18T12:40:55;51.72;;;49.88;;
75012;SDS011;63567;49.956;20.130;2023-09-18T12:43:21;43.08;;;41.47;;
75012;SDS011;63567;49.956;20.130;2023-09-18T12:45:48;53.75;;;51.95;;
75012;SDS011;63567;49.956;20.130;2023-09-18T12:48:14;52.78;;;50.97;;
75012;SDS011;63567;49.956;20.130;2023-09-18T12:50:40;52.10;;;50.25;;
75012;SDS011;63567;49.956;20.130;2023-09-18T12:53:12;54.80;;;52.92;;
75012;SDS011;63567;49.956;20.130;2023-09-18T12:55:39;62.03;;;59.95;;
75012;SDS011;63567;49.956;20.130;2023-09-18T12:58:05;57.15;;;55.15;;
75012;SDS011;63567;49.956;20.130;2023-09-18T13:00:35;54.97;;;53.17;;
75012;SDS011;63567;49.956;20.130;2023-09-18T13:03:01;55.10;;;53.20;;
75012;SDS011;63567;49.956;20.130;2023-09-18T13:08:00;51.75;;;49.85;;
75012;SDS011;63567;49.956;20.130;2023-09-18T13:10:27;57.90;;;56.00;;
75012;SDS011;63567;49.956;20.130;2023-09-18T13:12:52;53.50;;;51.70;;
75012;SDS011;63567;49.956;20.130;2023-09-18T13:15:27;53.40;;;51.60;;
75012;SDS011;63567;49.956;20.130;2023-09-18T13:17:54;25.33;;;24.23;;
75012;SDS011;63567;49.956;20.130;2023-09-18T13:20:21;49.33;;;47.55;;
75012;SDS011;63567;49.956;20.130;2023-09-18T13:22:51;50.17;;;48.47;;
75012;SDS011;63567;49.956;20.130;2023-09-18T13:25:22;55.65;;;53.80;;
75012;SDS011;63567;49.956;20.130;2023-09-18T13:27:55;56.60;;;54.65;;
75012;SDS011;63567;49.956;20.130;2023-09-18T13:30:21;31.73;;;30.42;;
75012;SDS011;63567;49.956;20.130;2023-09-18T13:32:47;50.13;;;48.35;;
75012;SDS011;63567;49.956;20.130;2023-09-18T13:35:14;48.67;;;47.08;;
75012;SDS011;63567;49.956;20.130;2023-09-18T13:37:40;25.70;;;24.52;;
75012;SDS011;63567;49.956;20.130;2023-09-18T13:40:07;48.92;;;47.22;;
75012;SDS011;63567;49.956;20.130;2023-09-18T13:42:33;52.22;;;50.47;;
75012;SDS011;63567;49.956;20.130;2023-09-18T13:45:03;58.00;;;56.03;;
75012;SDS011;63567;49.956;20.130;2023-09-18T13:47:29;64.32;;;62.17;;
75012;SDS011;63567;49.956;20.130;2023-09-18T13:49:55;29.27;;;27.85;;
75012;SDS011;63567;49.956;20.130;2023-09-18T13:52:25;64.93;;;62.72;;
75012;SDS011;63567;49.956;20.130;2023-09-18T13:54:54;55.50;;;53.50;;
75012;SDS011;63567;49.956;20.130;2023-09-18T13:57:20;44.78;;;43.17;;
75012;SDS011;63567;49.956;20.130;2023-09-18T13:59:46;53.90;;;52.10;;
75012;SDS011;63567;49.956;20.130;2023-09-18T14:02:12;67.57;;;65.43;;
75012;SDS011;63567;49.956;20.130;2023-09-18T14:04:38;62.00;;;59.97;;
75012;SDS011;63567;49.956;20.130;2023-09-18T14:07:04;63.42;;;61.42;;
75012;SDS011;63567;49.956;20.130;2023-09-18T14:09:30;58.40;;;56.45;;
75012;SDS011;63567;49.956;20.130;2023-09-18T14:11:56;26.93;;;25.80;;
75012;SDS011;63567;49.956;20.130;2023-09-18T14:14:24;49.23;;;47.60;;
75012;SDS011;63567;49.956;20.130;2023-09-18T14:16:49;51.38;;;49.65;;
75012;SDS011;63567;49.956;20.130;2023-09-18T14:19:16;56.17;;;54.28;;
75012;SDS011;63567;49.956;20.130;2023-09-18T14:21:41;52.20;;;50.45;;
75012;SDS011;63567;49.956;20.130;2023-09-18T14:24:07;56.08;;;54.17;;
75012;SDS011;63567;49.956;20.130;2023-09-18T14:26:33;50.25;;;48.50;;
75012;SDS011;63567;49.956;20.130;2023-09-18T14:28:59;48.55;;;46.85;;
75012;SDS011;63567;49.956;20.130;2023-09-18T14:31:26;60.20;;;58.20;;